Arcadia, MI

12:25 AM EST on December 21, 2014 (GMT -0500)
Benzie | Change Station
CLOSE
Current Station
Personal Weather Station
Location: Benzonia, MI
Elevation: 811 ft
Nearby Weather Stations

Elev 811 ft 44.54 °N, 86.11 °W | Updated 9 minutes ago

Overcast
Overcast
29.0 °F
Feels Like 29 °F
N
0.0
Wind Variable Wind from ESE
Gusts 0.0 mph

Today
High -- | Low -- °F
--% Chance of Precip.
Yesterday
High -- | Low -- °F
Precip. -- in
8:18 AM 5:07 PM
Waning Crescent, 1% visible
Pressure 30.23 in
Visibility 10.0 miles
Clouds Scattered Clouds 1400 ft
Overcast 3600 ft
Windchill 29 °F
Dew Point 26 °F
Humidity 89%
Rainfall 0.00 in
Snow Depth Not available.
UV 0 out of 12
Pollen .10 out of 12
Air Quality Not available.
Flu Activity Not available.
METAR KFKS 210511Z AUTO 14005KT 10SM SCT014 OVC036 M01/M04 A3023 RMK AO2 T10151037

More Conditions Fewer Conditions

Pressure 30.23 in
Visibility 10.0 miles
Clouds Scattered Clouds 1400 ft
Overcast 3600 ft
Windchill 29 °F
Dew Point 26 °F
Humidity 89%
Rainfall 0.00 in
Snow Depth Not available.
UV 0 out of 12
Pollen .10 out of 12
Air Quality Not available.
Flu Activity Not available.
METAR KFKS 210511Z AUTO 14005KT 10SM SCT014 OVC036 M01/M04 A3023 RMK AO2 T10151037

More Conditions Fewer Conditions

Nowcast | as of 12:00 am EST on December 21, 2014

At 1 am...cloudy. Temperature 27. Light winds. At 3 am...cloudy. Chance of light freezing drizzle and flurries. Temperature 27. Light winds. Chance of light freezing drizzle and flurries. At 7 am...cloudy. Temperature 29. Southeast winds 5 mph.

×

10-Day Weather Forecast

Almanac

Astronomy

Dec. 21, 2014 Rise Set
Actual Time
Civil Twilight
Nautical Twilight
Astronomical Twilight
Moon
Length of Visible Light
Length of Day
Tomorrow will be .
, % of the Moon is Illuminated

Today's Extremes

State Highs State Lows

Community

WunderPhotos

Upload Photos

1,779,358 photos uploaded!

WunderBlogs® & News

Nearby

Air Quality

  Air Quality AQ Index Pollutant
Not available.

Snow Depth

Station Depth Elevation

Earthquake Activity

City Distance Mag. Time & Date
Minimum magnitude displayed is 2.5.

Coastal Water Temperatures

Place Temperature

Nearby Weather Stations